sensor_id;sensor_type;location;lat;lon;timestamp;pressure;altitude;pressure_sealevel;temperature;humidity
79075;BME280;68476;42.710;23.388;2024-03-07T00:00:05;95413.53;;;6.35;100.00
79075;BME280;68476;42.710;23.388;2024-03-07T00:02:50;95409.59;;;6.38;100.00
79075;BME280;68476;42.710;23.388;2024-03-07T00:05:21;95412.28;;;6.31;100.00
79075;BME280;68476;42.710;23.388;2024-03-07T00:07:49;95410.44;;;6.31;100.00
79075;BME280;68476;42.710;23.388;2024-03-07T00:10:15;95409.56;;;6.31;100.00
79075;BME280;68476;42.710;23.388;2024-03-07T00:12:42;95412.50;;;6.29;100.00
79075;BME280;68476;42.710;23.388;2024-03-07T00:15:09;95408.94;;;6.36;100.00
79075;BME280;68476;42.710;23.388;2024-03-07T00:17:36;95411.66;;;6.36;100.00
79075;BME280;68476;42.710;23.388;2024-03-07T00:20:02;95405.19;;;6.30;100.00
79075;BME280;68476;42.710;23.388;2024-03-07T00:22:37;95407.91;;;6.30;100.00
79075;BME280;68476;42.710;23.388;2024-03-07T00:25:03;95399.56;;;6.18;100.00
79075;BME280;68476;42.710;23.388;2024-03-07T00:27:32;95397.66;;;6.12;100.00
79075;BME280;68476;42.710;23.388;2024-03-07T00:29:59;95388.94;;;6.10;100.00
79075;BME280;68476;42.710;23.388;2024-03-07T00:32:24;95390.19;;;6.14;100.00
79075;BME280;68476;42.710;23.388;2024-03-07T00:34:52;95390.81;;;6.09;100.00
79075;BME280;68476;42.710;23.388;2024-03-07T00:37:17;95389.38;;;6.20;100.00
79075;BME280;68476;42.710;23.388;2024-03-07T00:39:43;95390.41;;;6.19;100.00
79075;BME280;68476;42.710;23.388;2024-03-07T00:42:09;95380.84;;;6.10;100.00
79075;BME280;68476;42.710;23.388;2024-03-07T00:44:35;95379.81;;;6.11;100.00
79075;BME280;68476;42.710;23.388;2024-03-07T00:47:01;95379.78;;;6.04;100.00
79075;BME280;68476;42.710;23.388;2024-03-07T00:49:30;95387.28;;;6.09;100.00
79075;BME280;68476;42.710;23.388;2024-03-07T00:51:57;95379.78;;;6.04;100.00
79075;BME280;68476;42.710;23.388;2024-03-07T00:54:23;95385.19;;;6.04;100.00
79075;BME280;68476;42.710;23.388;2024-03-07T00:56:48;95378.13;;;6.03;100.00
79075;BME280;68476;42.710;23.388;2024-03-07T00:59:17;95373.94;;;6.07;100.00
79075;BME280;68476;42.710;23.388;2024-03-07T01:01:43;95380.19;;;6.08;100.00
79075;BME280;68476;42.710;23.388;2024-03-07T01:04:09;95376.66;;;6.07;100.00
79075;BME280;68476;42.710;23.388;2024-03-07T01:06:35;95376.47;;;6.09;100.00
79075;BME280;68476;42.710;23.388;2024-03-07T01:09:01;95366.03;;;6.06;100.00
79075;BME280;68476;42.710;23.388;2024-03-07T01:11:27;95362.53;;;6.05;100.00
79075;BME280;68476;42.710;23.388;2024-03-07T01:13:53;95361.66;;;6.05;100.00
79075;BME280;68476;42.710;23.388;2024-03-07T01:16:19;95358.56;;;6.08;100.00
79075;BME280;68476;42.710;23.388;2024-03-07T01:18:44;95362.91;;;6.02;100.00
79075;BME280;68476;42.710;23.388;2024-03-07T01:21:10;95355.00;;;6.00;100.00
79075;BME280;68476;42.710;23.388;2024-03-07T01:23:35;95360.56;;;5.92;100.00
79075;BME280;68476;42.710;23.388;2024-03-07T01:26:01;95358.91;;;5.91;100.00
79075;BME280;68476;42.710;23.388;2024-03-07T01:28:28;95355.59;;;5.96;100.00
79075;BME280;68476;42.710;23.388;2024-03-07T01:30:56;95349.34;;;5.95;100.00
79075;BME280;68476;42.710;23.388;2024-03-07T01:33:22;95345.78;;;5.88;100.00
79075;BME280;68476;42.710;23.388;2024-03-07T01:35:48;95351.47;;;6.00;100.00
79075;BME280;68476;42.710;23.388;2024-03-07T01:38:14;95345.59;;;5.96;100.00
79075;BME280;68476;42.710;23.388;2024-03-07T01:40:40;95344.34;;;5.92;100.00
79075;BME280;68476;42.710;23.388;2024-03-07T01:43:07;95339.78;;;5.86;100.00
79075;BME280;68476;42.710;23.388;2024-03-07T01:45:32;95348.47;;;5.88;100.00
79075;BME280;68476;42.710;23.388;2024-03-07T01:47:58;95344.16;;;5.87;100.00
79075;BME280;68476;42.710;23.388;2024-03-07T01:50:24;95339.31;;;5.82;100.00
79075;BME280;68476;42.710;23.388;2024-03-07T01:52:50;95329.75;;;5.80;100.00
79075;BME280;68476;42.710;23.388;2024-03-07T01:55:17;95340.97;;;5.77;100.00
79075;BME280;68476;42.710;23.388;2024-03-07T01:57:43;95338.50;;;5.75;100.00
79075;BME280;68476;42.710;23.388;2024-03-07T02:00:09;95331.81;;;5.78;100.00
79075;BME280;68476;42.710;23.388;2024-03-07T02:02:35;95340.97;;;5.70;100.00
79075;BME280;68476;42.710;23.388;2024-03-07T02:05:01;95347.22;;;5.70;100.00
79075;BME280;68476;42.710;23.388;2024-03-07T02:07:27;95343.47;;;5.71;100.00
79075;BME280;68476;42.710;23.388;2024-03-07T02:10:18;95359.28;;;5.75;100.00
79075;BME280;68476;42.710;23.388;2024-03-07T02:12:44;95360.53;;;5.79;100.00
79075;BME280;68476;42.710;23.388;2024-03-07T02:15:10;95359.69;;;5.71;100.00
79075;BME280;68476;42.710;23.388;2024-03-07T02:17:36;95355.97;;;5.73;100.00
79075;BME280;68476;42.710;23.388;2024-03-07T02:20:02;95355.09;;;5.72;100.00
79075;BME280;68476;42.710;23.388;2024-03-07T02:22:29;95347.00;;;5.72;100.00
79075;BME280;68476;42.710;23.388;2024-03-07T02:24:55;95353.03;;;5.67;100.00
79075;BME280;68476;42.710;23.388;2024-03-07T02:27:20;95348.03;;;5.64;100.00
79075;BME280;68476;42.710;23.388;2024-03-07T02:29:46;95339.69;;;5.59;100.00
79075;BME280;68476;42.710;23.388;2024-03-07T02:32:12;95334.69;;;5.56;100.00
79075;BME280;68476;42.710;23.388;2024-03-07T02:34:38;95335.97;;;5.60;100.00
79075;BME280;68476;42.710;23.388;2024-03-07T02:37:03;95342.41;;;5.59;100.00
79075;BME280;68476;42.710;23.388;2024-03-07T02:39:29;95336.75;;;5.54;100.00
79075;BME280;68476;42.710;23.388;2024-03-07T02:41:55;95334.66;;;5.49;100.00
79075;BME280;68476;42.710;23.388;2024-03-07T02:44:20;95350.28;;;5.54;100.00
79075;BME280;68476;42.710;23.388;2024-03-07T02:46:46;95358.81;;;5.51;100.00
79075;BME280;68476;42.710;23.388;2024-03-07T02:49:14;95350.25;;;5.47;100.00
79075;BME280;68476;42.710;23.388;2024-03-07T02:51:40;95356.72;;;5.46;100.00
79075;BME280;68476;42.710;23.388;2024-03-07T02:54:07;95365.03;;;5.51;100.00
79075;BME280;68476;42.710;23.388;2024-03-07T02:56:33;95360.22;;;5.47;100.00
79075;BME280;68476;42.710;23.388;2024-03-07T02:58:59;95363.97;;;5.46;100.00
79075;BME280;68476;42.710;23.388;2024-03-07T03:01:24;95368.75;;;5.44;100.00
79075;BME280;68476;42.710;23.388;2024-03-07T03:03:50;95364.81;;;5.46;100.00
79075;BME280;68476;42.710;23.388;2024-03-07T03:06:15;95375.00;;;5.44;100.00
79075;BME280;68476;42.710;23.388;2024-03-07T03:08:41;95377.59;;;5.24;100.00
79075;BME280;68476;42.710;23.388;2024-03-07T03:11:06;95384.84;;;5.23;100.00
79075;BME280;68476;42.710;23.388;2024-03-07T03:13:37;95383.22;;;5.22;100.00
79075;BME280;68476;42.710;23.388;2024-03-07T03:16:04;95374.44;;;5.14;100.00
79075;BME280;68476;42.710;23.388;2024-03-07T03:18:32;95371.47;;;5.08;100.00
79075;BME280;68476;42.710;23.388;2024-03-07T03:20:59;95380.16;;;4.97;100.00
79075;BME280;68476;42.710;23.388;2024-03-07T03:23:25;95378.84;;;4.86;100.00
79075;BME280;68476;42.710;23.388;2024-03-07T03:25:50;95377.34;;;4.84;100.00
79075;BME280;68476;42.710;23.388;2024-03-07T03:28:16;95380.47;;;4.81;100.00
79075;BME280;68476;42.710;23.388;2024-03-07T03:30:44;95378.38;;;4.83;100.00
79075;BME280;68476;42.710;23.388;2024-03-07T03:33:10;95383.78;;;4.83;100.00
79075;BME280;68476;42.710;23.388;2024-03-07T03:35:37;95377.81;;;4.87;100.00
79075;BME280;68476;42.710;23.388;2024-03-07T03:38:03;95382.75;;;4.84;100.00
79075;BME280;68476;42.710;23.388;2024-03-07T03:40:28;95385.53;;;4.97;100.00
79075;BME280;68476;42.710;23.388;2024-03-07T03:42:54;95392.78;;;4.90;100.00
79075;BME280;68476;42.710;23.388;2024-03-07T03:45:19;95403.31;;;4.85;100.00
79075;BME280;68476;42.710;23.388;2024-03-07T03:47:45;95411.69;;;4.90;100.00
79075;BME280;68476;42.710;23.388;2024-03-07T03:50:12;95390.25;;;4.82;100.00
79075;BME280;68476;42.710;23.388;2024-03-07T03:52:38;95383.72;;;4.69;100.00
79075;BME280;68476;42.710;23.388;2024-03-07T03:55:05;95386.16;;;4.64;100.00
79075;BME280;68476;42.710;23.388;2024-03-07T03:57:39;95388.91;;;4.42;100.00
79075;BME280;68476;42.710;23.388;2024-03-07T04:00:05;95377.84;;;4.37;100.00
79075;BME280;68476;42.710;23.388;2024-03-07T04:02:40;95363.88;;;4.27;100.00
79075;BME280;68476;42.710;23.388;2024-03-07T04:05:07;95367.09;;;4.15;100.00
79075;BME280;68476;42.710;23.388;2024-03-07T04:07:34;95371.00;;;4.13;100.00
79075;BME280;68476;42.710;23.388;2024-03-07T04:10:00;95378.38;;;4.04;100.00
79075;BME280;68476;42.710;23.388;2024-03-07T04:12:29;95379.41;;;4.03;100.00
79075;BME280;68476;42.710;23.388;2024-03-07T04:14:55;95376.94;;;4.01;100.00
79075;BME280;68476;42.710;23.388;2024-03-07T04:17:21;95374.53;;;3.92;100.00
79075;BME280;68476;42.710;23.388;2024-03-07T04:19:47;95370.31;;;3.82;100.00
79075;BME280;68476;42.710;23.388;2024-03-07T04:22:13;95383.41;;;3.85;100.00
79075;BME280;68476;42.710;23.388;2024-03-07T04:24:38;95381.91;;;3.83;100.00
79075;BME280;68476;42.710;23.388;2024-03-07T04:27:06;95391.09;;;3.89;100.00
79075;BME280;68476;42.710;23.388;2024-03-07T04:29:33;95391.66;;;3.84;100.00
79075;BME280;68476;42.710;23.388;2024-03-07T04:32:01;95387.50;;;3.81;100.00
79075;BME280;68476;42.710;23.388;2024-03-07T04:34:29;95388.91;;;3.77;100.00
79075;BME280;68476;42.710;23.388;2024-03-07T04:36:58;95390.50;;;3.72;100.00
79075;BME280;68476;42.710;23.388;2024-03-07T04:39:24;95384.47;;;3.69;100.00
79075;BME280;68476;42.710;23.388;2024-03-07T04:42:04;95389.22;;;3.67;100.00
79075;BME280;68476;42.710;23.388;2024-03-07T04:44:32;95379.72;;;3.72;100.00
79075;BME280;68476;42.710;23.388;2024-03-07T04:46:59;95387.72;;;3.65;100.00
79075;BME280;68476;42.710;23.388;2024-03-07T04:49:27;95382.25;;;3.73;100.00
79075;BME280;68476;42.710;23.388;2024-03-07T04:51:55;95383.25;;;3.72;100.00
79075;BME280;68476;42.710;23.388;2024-03-07T04:54:22;95380.69;;;3.64;100.00
79075;BME280;68476;42.710;23.388;2024-03-07T04:56:49;95388.56;;;3.65;100.00
79075;BME280;68476;42.710;23.388;2024-03-07T04:59:16;95392.09;;;3.66;100.00
79075;BME280;68476;42.710;23.388;2024-03-07T05:01:42;95401.84;;;3.67;100.00
79075;BME280;68476;42.710;23.388;2024-03-07T05:04:09;95397.47;;;3.66;100.00
79075;BME280;68476;42.710;23.388;2024-03-07T05:06:35;95399.06;;;3.75;100.00
79075;BME280;68476;42.710;23.388;2024-03-07T05:09:05;95411.03;;;3.73;100.00
79075;BME280;68476;42.710;23.388;2024-03-07T05:11:33;95409.84;;;3.75;100.00
79075;BME280;68476;42.710;23.388;2024-03-07T05:13:59;95417.66;;;3.70;100.00
79075;BME280;68476;42.710;23.388;2024-03-07T05:16:26;95420.63;;;3.75;100.00
79075;BME280;68476;42.710;23.388;2024-03-07T05:18:51;95415.47;;;3.80;100.00
79075;BME280;68476;42.710;23.388;2024-03-07T05:21:18;95413.56;;;3.74;100.00
79075;BME280;68476;42.710;23.388;2024-03-07T05:24:01;95407.31;;;3.74;100.00
79075;BME280;68476;42.710;23.388;2024-03-07T05:26:28;95409.63;;;3.77;100.00
79075;BME280;68476;42.710;23.388;2024-03-07T05:29:03;95401.34;;;3.78;100.00
79075;BME280;68476;42.710;23.388;2024-03-07T05:31:37;95414.47;;;3.81;100.00
79075;BME280;68476;42.710;23.388;2024-03-07T05:34:06;95408.94;;;3.90;100.00
79075;BME280;68476;42.710;23.388;2024-03-07T05:36:35;95417.16;;;4.03;100.00
79075;BME280;68476;42.710;23.388;2024-03-07T05:39:01;95422.13;;;3.99;100.00
79075;BME280;68476;42.710;23.388;2024-03-07T05:41:34;95424.50;;;4.09;100.00
79075;BME280;68476;42.710;23.388;2024-03-07T05:43:59;95410.50;;;3.99;100.00
79075;BME280;68476;42.710;23.388;2024-03-07T05:46:25;95411.19;;;4.08;100.00
79075;BME280;68476;42.710;23.388;2024-03-07T05:48:51;95421.94;;;4.23;100.00
79075;BME280;68476;42.710;23.388;2024-03-07T05:51:23;95419.88;;;4.25;100.00
79075;BME280;68476;42.710;23.388;2024-03-07T05:53:50;95425.25;;;4.25;100.00
79075;BME280;68476;42.710;23.388;2024-03-07T05:56:16;95425.16;;;4.33;100.00
79075;BME280;68476;42.710;23.388;2024-03-07T05:58:41;95413.94;;;4.36;100.00
79075;BME280;68476;42.710;23.388;2024-03-07T06:01:07;95418.19;;;4.24;100.00
79075;BME280;68476;42.710;23.388;2024-03-07T06:03:34;95421.16;;;4.29;100.00
79075;BME280;68476;42.710;23.388;2024-03-07T06:05:59;95423.34;;;4.40;100.00
79075;BME280;68476;42.710;23.388;2024-03-07T06:08:25;95428.59;;;4.27;100.00
79075;BME280;68476;42.710;23.388;2024-03-07T06:10:50;95439.91;;;4.37;100.00
79075;BME280;68476;42.710;23.388;2024-03-07T06:13:16;95436.25;;;4.45;100.00
79075;BME280;68476;42.710;23.388;2024-03-07T06:15:46;95434.78;;;4.42;100.00
79075;BME280;68476;42.710;23.388;2024-03-07T06:18:13;95436.06;;;4.46;100.00
79075;BME280;68476;42.710;23.388;2024-03-07T06:20:43;95439.22;;;4.50;100.00
79075;BME280;68476;42.710;23.388;2024-03-07T06:23:09;95442.63;;;4.66;100.00
79075;BME280;68476;42.710;23.388;2024-03-07T06:25:37;95444.84;;;4.55;100.00
79075;BME280;68476;42.710;23.388;2024-03-07T06:28:11;95450.56;;;4.67;100.00
79075;BME280;68476;42.710;23.388;2024-03-07T06:30:46;95460.06;;;4.63;100.00
79075;BME280;68476;42.710;23.388;2024-03-07T06:33:12;95468.44;;;4.68;100.00
79075;BME280;68476;42.710;23.388;2024-03-07T06:35:38;95475.25;;;4.64;100.00
79075;BME280;68476;42.710;23.388;2024-03-07T06:38:06;95470.88;;;4.63;100.00
79075;BME280;68476;42.710;23.388;2024-03-07T06:40:32;95468.19;;;4.41;100.00
79075;BME280;68476;42.710;23.388;2024-03-07T06:43:01;95456.34;;;4.64;100.00
79075;BME280;68476;42.710;23.388;2024-03-07T06:45:29;95450.56;;;4.67;100.00
79075;BME280;68476;42.710;23.388;2024-03-07T06:47:55;95444.72;;;4.63;100.00
79075;BME280;68476;42.710;23.388;2024-03-07T06:50:20;95445.50;;;4.86;100.00
79075;BME280;68476;42.710;23.388;2024-03-07T06:52:47;95440.38;;;4.91;100.00
79075;BME280;68476;42.710;23.388;2024-03-07T06:55:16;95456.66;;;4.76;100.00
79075;BME280;68476;42.710;23.388;2024-03-07T06:57:43;95461.59;;;5.01;100.00
79075;BME280;68476;42.710;23.388;2024-03-07T07:00:09;95457.28;;;5.06;100.00
79075;BME280;68476;42.710;23.388;2024-03-07T07:02:39;95458.88;;;5.22;100.00
79075;BME280;68476;42.710;23.388;2024-03-07T07:05:08;95459.91;;;5.21;100.00
79075;BME280;68476;42.710;23.388;2024-03-07T07:07:40;95462.13;;;5.11;100.00
79075;BME280;68476;42.710;23.388;2024-03-07T07:10:09;95459.81;;;5.08;100.00
79075;BME280;68476;42.710;23.388;2024-03-07T07:12:42;95461.25;;;5.11;100.00
79075;BME280;68476;42.710;23.388;2024-03-07T07:15:09;95455.88;;;5.11;100.00
79075;BME280;68476;42.710;23.388;2024-03-07T07:17:35;95451.03;;;5.34;100.00
79075;BME280;68476;42.710;23.388;2024-03-07T07:20:01;95448.75;;;5.38;100.00
79075;BME280;68476;42.710;23.388;2024-03-07T07:22:26;95431.09;;;5.42;100.00
79075;BME280;68476;42.710;23.388;2024-03-07T07:24:52;95438.50;;;5.68;100.00
79075;BME280;68476;42.710;23.388;2024-03-07T07:27:17;95434.06;;;5.54;100.00
79075;BME280;68476;42.710;23.388;2024-03-07T07:29:44;95432.00;;;5.56;100.00
79075;BME280;68476;42.710;23.388;2024-03-07T07:32:09;95439.97;;;5.64;100.00
79075;BME280;68476;42.710;23.388;2024-03-07T07:34:37;95440.06;;;5.98;100.00
79075;BME280;68476;42.710;23.388;2024-03-07T07:37:04;95443.22;;;6.01;100.00
79075;BME280;68476;42.710;23.388;2024-03-07T07:39:29;95436.84;;;6.23;100.00
79075;BME280;68476;42.710;23.388;2024-03-07T07:41:55;95430.78;;;6.14;100.00
79075;BME280;68476;42.710;23.388;2024-03-07T07:44:21;95429.75;;;6.15;100.00
79075;BME280;68476;42.710;23.388;2024-03-07T07:46:47;95435.16;;;6.15;100.00
79075;BME280;68476;42.710;23.388;2024-03-07T07:49:14;95431.81;;;6.13;100.00
79075;BME280;68476;42.710;23.388;2024-03-07T07:51:41;95432.25;;;6.16;100.00
79075;BME280;68476;42.710;23.388;2024-03-07T07:54:07;95429.34;;;6.25;100.00
79075;BME280;68476;42.710;23.388;2024-03-07T07:56:35;95419.38;;;6.32;100.00
79075;BME280;68476;42.710;23.388;2024-03-07T07:59:01;95433.03;;;6.04;100.00
79075;BME280;68476;42.710;23.388;2024-03-07T08:01:26;95427.66;;;6.17;100.00
79075;BME280;68476;42.710;23.388;2024-03-07T08:03:52;95422.28;;;6.30;100.00
79075;BME280;68476;42.710;23.388;2024-03-07T08:06:18;95421.22;;;6.18;100.00
79075;BME280;68476;42.710;23.388;2024-03-07T08:08:44;95416.63;;;6.19;100.00
79075;BME280;68476;42.710;23.388;2024-03-07T08:11:09;95415.63;;;6.40;100.00
79075;BME280;68476;42.710;23.388;2024-03-07T08:13:37;95421.47;;;6.50;100.00
79075;BME280;68476;42.710;23.388;2024-03-07T08:16:02;95428.50;;;6.17;100.00
79075;BME280;68476;42.710;23.388;2024-03-07T08:18:28;95433.41;;;5.87;100.00
79075;BME280;68476;42.710;23.388;2024-03-07T08:20:54;95443.28;;;6.22;100.00
79075;BME280;68476;42.710;23.388;2024-03-07T08:23:20;95445.59;;;6.31;100.00
79075;BME280;68476;42.710;23.388;2024-03-07T08:25:48;95449.56;;;6.49;100.00
79075;BME280;68476;42.710;23.388;2024-03-07T08:28:13;95452.69;;;6.26;100.00
79075;BME280;68476;42.710;23.388;2024-03-07T08:30:39;95460.13;;;6.17;100.00
79075;BME280;68476;42.710;23.388;2024-03-07T08:33:04;95466.38;;;6.17;100.00
79075;BME280;68476;42.710;23.388;2024-03-07T08:35:30;95468.44;;;6.09;100.00
79075;BME280;68476;42.710;23.388;2024-03-07T08:37:56;95477.25;;;6.38;100.00
79075;BME280;68476;42.710;23.388;2024-03-07T08:40:29;95482.88;;;6.36;100.00
79075;BME280;68476;42.710;23.388;2024-03-07T08:42:59;95486.41;;;6.37;100.00
79075;BME280;68476;42.710;23.388;2024-03-07T08:45:26;95479.09;;;6.17;100.00
79075;BME280;68476;42.710;23.388;2024-03-07T08:47:53;95488.06;;;6.31;100.00
79075;BME280;68476;42.710;23.388;2024-03-07T08:50:25;95486.38;;;6.16;100.00
79075;BME280;68476;42.710;23.388;2024-03-07T08:52:51;95489.28;;;6.22;100.00
79075;BME280;68476;42.710;23.388;2024-03-07T08:55:20;95495.56;;;6.22;100.00
79075;BME280;68476;42.710;23.388;2024-03-07T08:57:46;95492.72;;;6.57;100.00
79075;BME280;68476;42.710;23.388;2024-03-07T09:00:14;95500.84;;;6.57;100.00
79075;BME280;68476;42.710;23.388;2024-03-07T09:02:53;95506.66;;;6.47;100.00
79075;BME280;68476;42.710;23.388;2024-03-07T09:05:19;95501.00;;;6.49;100.00
79075;BME280;68476;42.710;23.388;2024-03-07T09:07:46;95485.22;;;6.66;100.00
79075;BME280;68476;42.710;23.388;2024-03-07T09:10:15;95488.97;;;6.58;100.00
79075;BME280;68476;42.710;23.388;2024-03-07T09:12:41;95486.28;;;6.92;100.00
79075;BME280;68476;42.710;23.388;2024-03-07T09:15:08;95484.84;;;6.96;100.00
79075;BME280;68476;42.710;23.388;2024-03-07T09:17:37;95484.19;;;6.87;100.00
79075;BME280;68476;42.710;23.388;2024-03-07T09:20:04;95487.13;;;6.79;100.00
79075;BME280;68476;42.710;23.388;2024-03-07T09:22:31;95492.75;;;7.11;100.00
79075;BME280;68476;42.710;23.388;2024-03-07T09:24:57;95490.03;;;7.11;100.00
79075;BME280;68476;42.710;23.388;2024-03-07T09:27:22;95482.75;;;6.78;100.00
79075;BME280;68476;42.710;23.388;2024-03-07T09:29:48;95491.28;;;7.22;100.00
79075;BME280;68476;42.710;23.388;2024-03-07T09:32:14;95497.31;;;7.24;100.00
79075;BME280;68476;42.710;23.388;2024-03-07T09:34:39;95497.09;;;7.46;100.00
79075;BME280;68476;42.710;23.388;2024-03-07T09:37:05;95506.91;;;7.06;100.00
79075;BME280;68476;42.710;23.388;2024-03-07T09:39:34;95503.97;;;7.48;100.00
79075;BME280;68476;42.710;23.388;2024-03-07T09:42:03;95496.06;;;7.40;100.00
79075;BME280;68476;42.710;23.388;2024-03-07T09:44:29;95495.19;;;7.66;100.00
79075;BME280;68476;42.710;23.388;2024-03-07T09:46:57;95490.13;;;7.77;100.00
79075;BME280;68476;42.710;23.388;2024-03-07T09:49:28;95487.38;;;7.97;100.00
79075;BME280;68476;42.710;23.388;2024-03-07T09:51:55;95488.06;;;7.79;100.00
79075;BME280;68476;42.710;23.388;2024-03-07T09:54:25;95490.44;;;8.59;100.00
79075;BME280;68476;42.710;23.388;2024-03-07T09:56:52;95490.06;;;8.04;100.00
79075;BME280;68476;42.710;23.388;2024-03-07T09:59:19;95489.22;;;8.87;100.00
79075;BME280;68476;42.710;23.388;2024-03-07T10:01:50;95497.22;;;8.75;100.00
79075;BME280;68476;42.710;23.388;2024-03-07T10:04:20;95490.19;;;8.61;100.00
79075;BME280;68476;42.710;23.388;2024-03-07T10:06:51;95498.19;;;8.56;100.00
79075;BME280;68476;42.710;23.388;2024-03-07T10:09:20;95493.03;;;8.79;100.00
79075;BME280;68476;42.710;23.388;2024-03-07T10:11:58;95488.88;;;8.70;100.00
79075;BME280;68476;42.710;23.388;2024-03-07T10:14:23;95473.03;;;9.18;100.00
79075;BME280;68476;42.710;23.388;2024-03-07T10:16:49;95473.06;;;9.62;100.00
79075;BME280;68476;42.710;23.388;2024-03-07T10:19:14;95461.44;;;9.73;100.00
79075;BME280;68476;42.710;23.388;2024-03-07T10:21:40;95463.78;;;10.07;100.00
79075;BME280;68476;42.710;23.388;2024-03-07T10:24:09;95455.84;;;10.05;100.00
79075;BME280;68476;42.710;23.388;2024-03-07T10:26:37;95453.91;;;10.24;100.00
79075;BME280;68476;42.710;23.388;2024-03-07T10:29:06;95448.38;;;9.63;100.00
79075;BME280;68476;42.710;23.388;2024-03-07T10:31:36;95450.31;;;9.12;100.00
79075;BME280;68476;42.710;23.388;2024-03-07T10:34:03;95449.34;;;9.00;100.00
79075;BME280;68476;42.710;23.388;2024-03-07T10:36:30;95454.81;;;9.44;100.00
79075;BME280;68476;42.710;23.388;2024-03-07T10:38:59;95454.56;;;9.70;100.00
79075;BME280;68476;42.710;23.388;2024-03-07T10:41:49;95455.38;;;9.71;100.00
79075;BME280;68476;42.710;23.388;2024-03-07T10:44:25;95446.53;;;9.38;100.00
79075;BME280;68476;42.710;23.388;2024-03-07T10:47:00;95453.56;;;9.46;100.00
79075;BME280;68476;42.710;23.388;2024-03-07T10:49:33;95446.81;;;9.05;100.00
79075;BME280;68476;42.710;23.388;2024-03-07T10:52:06;95450.22;;;9.44;100.00
79075;BME280;68476;42.710;23.388;2024-03-07T10:57:56;95452.56;;;8.64;100.00
79075;BME280;68476;42.710;23.388;2024-03-07T11:00:28;95448.31;;;8.75;100.00
79075;BME280;68476;42.710;23.388;2024-03-07T11:03:08;95451.00;;;8.50;100.00
79075;BME280;68476;42.710;23.388;2024-03-07T11:05:34;95452.44;;;8.46;100.00
79075;BME280;68476;42.710;23.388;2024-03-07T11:08:01;95443.47;;;8.45;100.00
79075;BME280;68476;42.710;23.388;2024-03-07T11:10:30;95432.19;;;8.42;100.00
79075;BME280;68476;42.710;23.388;2024-03-07T11:12:57;95435.88;;;8.61;100.00
79075;BME280;68476;42.710;23.388;2024-03-07T11:15:25;95440.25;;;8.62;100.00
79075;BME280;68476;42.710;23.388;2024-03-07T11:17:53;95436.47;;;8.63;100.00
79075;BME280;68476;42.710;23.388;2024-03-07T11:22:49;95445.22;;;8.33;100.00
79075;BME280;68476;42.710;23.388;2024-03-07T11:25:17;95439.78;;;8.33;100.00
79075;BME280;68476;42.710;23.388;2024-03-07T11:27:58;95434.91;;;8.10;100.00
79075;BME280;68476;42.710;23.388;2024-03-07T11:30:24;95435.94;;;8.47;100.00
79075;BME280;68476;42.710;23.388;2024-03-07T11:32:51;95432.84;;;8.05;100.00
79075;BME280;68476;42.710;23.388;2024-03-07T11:35:21;95430.13;;;8.05;100.00
79075;BME280;68476;42.710;23.388;2024-03-07T11:37:56;95425.00;;;8.22;100.00
79075;BME280;68476;42.710;23.388;2024-03-07T11:42:50;95416.97;;;8.02;100.00
79075;BME280;68476;42.710;23.388;2024-03-07T11:45:18;95418.44;;;8.05;100.00
79075;BME280;68476;42.710;23.388;2024-03-07T11:47:55;95424.47;;;8.07;100.00
79075;BME280;68476;42.710;23.388;2024-03-07T11:50:38;95423.44;;;8.01;100.00
79075;BME280;68476;42.710;23.388;2024-03-07T11:53:06;95421.63;;;7.95;100.00
79075;BME280;68476;42.710;23.388;2024-03-07T11:55:37;95422.53;;;8.21;100.00
79075;BME280;68476;42.710;23.388;2024-03-07T11:58:20;95418.59;;;7.71;100.00
79075;BME280;68476;42.710;23.388;2024-03-07T12:00:48;95418.34;;;7.79;100.00
79075;BME280;68476;42.710;23.388;2024-03-07T12:03:15;95417.03;;;7.89;100.00
79075;BME280;68476;42.710;23.388;2024-03-07T12:05:47;95417.63;;;7.97;100.00
79075;BME280;68476;42.710;23.388;2024-03-07T12:08:13;95418.84;;;8.08;100.00
79075;BME280;68476;42.710;23.388;2024-03-07T12:10:39;95418.53;;;8.23;100.00
79075;BME280;68476;42.710;23.388;2024-03-07T12:13:06;95420.03;;;8.12;100.00
79075;BME280;68476;42.710;23.388;2024-03-07T12:15:32;95411.25;;;7.71;100.00
79075;BME280;68476;42.710;23.388;2024-03-07T12:18:01;95416.28;;;7.75;100.00
79075;BME280;68476;42.710;23.388;2024-03-07T12:20:27;95411.53;;;8.02;100.00
79075;BME280;68476;42.710;23.388;2024-03-07T12:23:02;95410.53;;;7.44;100.00
79075;BME280;68476;42.710;23.388;2024-03-07T12:25:46;95415.44;;;7.74;100.00
79075;BME280;68476;42.710;23.388;2024-03-07T12:28:13;95418.03;;;7.49;100.00
79075;BME280;68476;42.710;23.388;2024-03-07T12:30:48;95410.53;;;7.37;100.00
79075;BME280;68476;42.710;23.388;2024-03-07T12:33:18;95419.31;;;7.39;100.00
79075;BME280;68476;42.710;23.388;2024-03-07T12:35:46;95410.75;;;7.49;100.00
79075;BME280;68476;42.710;23.388;2024-03-07T12:38:13;95413.28;;;7.24;100.00
79075;BME280;68476;42.710;23.388;2024-03-07T12:40:44;95409.31;;;7.40;100.00
79075;BME280;68476;42.710;23.388;2024-03-07T12:43:20;95419.16;;;7.14;100.00
79075;BME280;68476;42.710;23.388;2024-03-07T12:45:49;95422.91;;;7.13;100.00
79075;BME280;68476;42.710;23.388;2024-03-07T12:48:17;95423.16;;;7.05;100.00
79075;BME280;68476;42.710;23.388;2024-03-07T12:50:45;95414.38;;;7.09;100.00
79075;BME280;68476;42.710;23.388;2024-03-07T12:53:12;95411.03;;;7.07;100.00
79075;BME280;68476;42.710;23.388;2024-03-07T12:55:41;95415.59;;;7.14;100.00
79075;BME280;68476;42.710;23.388;2024-03-07T12:58:10;95414.75;;;7.27;100.00
79075;BME280;68476;42.710;23.388;2024-03-07T13:00:39;95403.69;;;7.35;100.00